createdAt,value
2018-10-06T00:01:35.836Z,10.87
2018-10-06T00:04:04.452Z,12.60
2018-10-06T00:06:33.035Z,10.87
2018-10-06T00:09:01.552Z,11.27
2018-10-06T00:11:30.064Z,11.50
2018-10-06T00:13:58.676Z,11.27
2018-10-06T00:16:27.209Z,11.10
2018-10-06T00:18:55.844Z,10.93
2018-10-06T00:21:24.730Z,10.50
2018-10-06T00:23:53.125Z,9.73
2018-10-06T00:26:22.007Z,10.77
2018-10-06T00:28:50.635Z,11.13
2018-10-06T00:31:19.233Z,10.20
2018-10-06T00:33:47.668Z,10.10
2018-10-06T00:36:16.153Z,9.90
2018-10-06T00:38:44.793Z,10.90
2018-10-06T00:41:13.629Z,10.60
2018-10-06T00:43:42.506Z,11.07
2018-10-06T00:46:11.087Z,10.03
2018-10-06T00:48:40.313Z,10.53
2018-10-06T00:51:09.327Z,9.93
2018-10-06T00:53:38.059Z,10.67
2018-10-06T00:56:06.908Z,9.57
2018-10-06T00:58:35.585Z,10.48
2018-10-06T01:01:04.421Z,9.67
2018-10-06T01:03:33.049Z,9.37
2018-10-06T01:06:01.798Z,9.07
2018-10-06T01:08:30.939Z,10.60
2018-10-06T01:10:59.580Z,9.83
2018-10-06T01:13:28.249Z,9.00
2018-10-06T01:15:56.957Z,9.50
2018-10-06T01:18:25.953Z,9.20
2018-10-06T01:20:55.059Z,10.10
2018-10-06T01:23:23.676Z,10.07
2018-10-06T01:25:52.275Z,9.90
2018-10-06T01:28:20.955Z,10.40
2018-10-06T01:30:49.686Z,11.07
2018-10-06T01:33:18.314Z,11.83
2018-10-06T01:35:47.059Z,11.07
2018-10-06T01:38:15.637Z,10.67
2018-10-06T01:40:44.352Z,9.27
2018-10-06T01:43:12.993Z,9.63
2018-10-06T01:45:41.630Z,9.50
2018-10-06T01:48:10.391Z,11.10
2018-10-06T01:50:39.414Z,11.70
2018-10-06T01:53:08.095Z,9.73
2018-10-06T01:55:36.719Z,9.50
2018-10-06T01:58:05.560Z,8.90
2018-10-06T02:00:34.396Z,10.32
2018-10-06T02:03:03.129Z,9.87
2018-10-06T02:05:31.749Z,10.18
2018-10-06T02:08:00.653Z,9.60
2018-10-06T02:10:29.659Z,10.03
2018-10-06T02:12:58.250Z,9.27
2018-10-06T02:15:26.952Z,8.77
2018-10-06T02:17:55.758Z,10.27
2018-10-06T02:20:24.550Z,9.90
2018-10-06T02:22:53.741Z,9.93
2018-10-06T02:25:22.478Z,9.77
2018-10-06T02:27:51.331Z,9.90
2018-10-06T02:30:20.269Z,10.13
2018-10-06T02:32:49.088Z,9.60
2018-10-06T02:35:19.249Z,9.80
2018-10-06T02:37:48.069Z,10.07
2018-10-06T02:40:16.592Z,9.70
2018-10-06T02:42:45.371Z,9.23
2018-10-06T02:45:14.121Z,9.60
2018-10-06T02:47:42.877Z,10.27
2018-10-06T02:50:11.876Z,10.23
2018-10-06T02:52:40.657Z,10.87
2018-10-06T02:55:09.349Z,10.33
2018-10-06T02:57:38.155Z,10.40
2018-10-06T03:00:06.936Z,10.40
2018-10-06T03:02:35.896Z,9.88
2018-10-06T03:05:04.463Z,10.37
2018-10-06T03:07:32.914Z,8.80
2018-10-06T03:10:01.636Z,9.40
2018-10-06T03:12:30.186Z,11.17
2018-10-06T03:14:58.642Z,11.10
2018-10-06T03:17:27.126Z,11.03
2018-10-06T03:19:55.853Z,10.33
2018-10-06T03:22:25.059Z,10.40
2018-10-06T03:24:53.651Z,9.43
2018-10-06T03:27:22.541Z,10.27
2018-10-06T03:29:51.496Z,10.60
2018-10-06T03:32:20.425Z,10.30
2018-10-06T03:34:49.180Z,10.20
2018-10-06T03:37:18.012Z,10.40
2018-10-06T03:39:46.932Z,9.53
2018-10-06T03:42:15.621Z,9.50
2018-10-06T03:44:44.346Z,9.37
2018-10-06T03:47:13.912Z,9.93
2018-10-06T03:49:42.551Z,9.73
2018-10-06T03:52:11.263Z,10.63
2018-10-06T03:54:39.952Z,10.03
2018-10-06T03:57:08.688Z,9.20
2018-10-06T03:59:37.339Z,9.57
2018-10-06T04:02:06.136Z,9.37
2018-10-06T04:04:35.021Z,9.87
2018-10-06T04:07:03.669Z,10.07
2018-10-06T04:09:32.100Z,10.30
2018-10-06T04:12:00.646Z,9.80
2018-10-06T04:14:29.180Z,9.63
2018-10-06T04:16:57.652Z,9.67
2018-10-06T04:19:26.383Z,10.13
2018-10-06T04:21:55.082Z,9.75
2018-10-06T04:24:23.777Z,9.43
2018-10-06T04:26:52.509Z,9.53
2018-10-06T04:29:21.336Z,9.80
2018-10-06T04:31:50.168Z,9.63
2018-10-06T04:34:18.881Z,9.90
2018-10-06T04:36:47.430Z,10.50
2018-10-06T04:39:16.157Z,9.37
2018-10-06T04:41:44.975Z,8.90
2018-10-06T04:44:13.757Z,10.43
2018-10-06T04:46:42.319Z,10.27
2018-10-06T04:49:11.235Z,10.40
2018-10-06T04:51:40.307Z,9.53
2018-10-06T04:54:09.435Z,10.70
2018-10-06T04:56:38.007Z,10.53
2018-10-06T04:59:06.801Z,11.20
2018-10-06T05:01:35.344Z,10.83
2018-10-06T05:04:04.182Z,11.60
2018-10-06T05:06:32.739Z,10.43
2018-10-06T05:09:01.120Z,9.57
2018-10-06T05:11:29.665Z,9.60
2018-10-06T05:13:58.365Z,9.53
2018-10-06T05:16:26.910Z,9.10
2018-10-06T05:18:55.511Z,9.93
2018-10-06T05:21:24.493Z,10.47
2018-10-06T05:23:53.071Z,9.80
2018-10-06T05:26:21.879Z,10.03
2018-10-06T05:28:50.778Z,10.15
2018-10-06T05:31:19.414Z,10.33
2018-10-06T05:33:48.142Z,10.63
2018-10-06T05:36:16.941Z,10.13
2018-10-06T05:38:45.691Z,8.90
2018-10-06T05:41:14.496Z,10.50
2018-10-06T05:43:43.408Z,9.87
2018-10-06T05:46:12.509Z,9.43
2018-10-06T05:48:41.543Z,10.27
2018-10-06T05:51:10.379Z,10.05
2018-10-06T05:53:39.315Z,11.12
2018-10-06T05:56:08.324Z,10.50
2018-10-06T05:58:37.370Z,10.93
2018-10-06T06:01:06.262Z,12.60
2018-10-06T06:03:35.009Z,11.37
2018-10-06T06:06:03.545Z,12.30
2018-10-06T06:08:31.967Z,12.70
2018-10-06T06:11:00.849Z,12.33
2018-10-06T06:13:29.882Z,12.90
2018-10-06T06:15:58.665Z,12.73
2018-10-06T06:18:27.881Z,13.53
2018-10-06T06:20:57.177Z,13.70
2018-10-06T06:23:27.182Z,14.40
2018-10-06T06:26:13.887Z,12.80
2018-10-06T06:28:50.504Z,11.20
2018-10-06T06:31:19.923Z,13.37
2018-10-06T06:33:49.525Z,12.07
2018-10-06T06:36:19.300Z,11.68
2018-10-06T06:38:48.869Z,12.50
2018-10-06T06:41:17.959Z,13.23
2018-10-06T06:43:47.616Z,12.87
2018-10-06T06:46:16.662Z,12.73
2018-10-06T06:48:49.330Z,13.20
2018-10-06T06:51:21.884Z,14.20
2018-10-06T06:53:51.167Z,14.13
2018-10-06T06:56:20.234Z,15.30
2018-10-06T06:58:50.814Z,11.57
2018-10-06T07:01:20.156Z,13.30
2018-10-06T07:03:48.835Z,12.60
2018-10-06T07:06:17.380Z,13.83
2018-10-06T07:08:46.101Z,13.30
2018-10-06T07:11:14.866Z,13.60
2018-10-06T07:13:43.495Z,14.20
2018-10-06T07:16:12.297Z,14.03
2018-10-06T07:18:41.590Z,13.23
2018-10-06T07:21:10.489Z,15.07
2018-10-06T07:23:39.410Z,19.03
2018-10-06T07:26:09.408Z,18.80
2018-10-06T07:28:38.219Z,21.30
2018-10-06T07:31:07.347Z,18.53
2018-10-06T07:33:36.119Z,18.10
2018-10-06T07:36:05.039Z,17.77
2018-10-06T07:38:34.427Z,17.73
2018-10-06T07:41:03.308Z,18.10
2018-10-06T07:43:32.146Z,17.50
2018-10-06T07:46:00.964Z,17.47
2018-10-06T07:48:29.900Z,16.93
2018-10-06T07:50:58.573Z,17.10
2018-10-06T07:53:27.693Z,18.93
2018-10-06T07:55:56.796Z,21.20
2018-10-06T07:58:25.562Z,22.93
2018-10-06T08:00:54.089Z,24.90
2018-10-06T08:03:22.791Z,23.47
2018-10-06T08:05:51.295Z,22.90
2018-10-06T08:08:19.968Z,21.80
2018-10-06T08:10:48.530Z,20.30
2018-10-06T08:13:17.369Z,17.60
2018-10-06T08:15:46.226Z,18.55
2018-10-06T08:18:15.039Z,18.50
2018-10-06T08:20:44.009Z,19.77
2018-10-06T08:23:13.123Z,21.87
2018-10-06T08:25:42.106Z,19.60
2018-10-06T08:28:11.008Z,22.10
2018-10-06T08:30:40.390Z,21.00
2018-10-06T08:33:10.739Z,20.97
2018-10-06T08:35:39.678Z,18.30
2018-10-06T08:38:09.075Z,16.07
2018-10-06T08:40:38.253Z,13.03
2018-10-06T08:43:07.641Z,11.97
2018-10-06T08:45:36.412Z,11.83
2018-10-06T08:48:05.204Z,10.70
2018-10-06T08:50:33.980Z,10.30
2018-10-06T08:53:02.900Z,10.30
2018-10-06T08:55:31.571Z,10.17
2018-10-06T08:58:01.494Z,12.50
2018-10-06T09:00:30.583Z,9.13
2018-10-06T09:02:59.617Z,7.97
2018-10-06T09:05:28.857Z,8.03
2018-10-06T09:07:58.664Z,7.83
2018-10-06T09:10:27.370Z,7.13
2018-10-06T09:12:56.285Z,7.10
2018-10-06T09:15:24.858Z,7.30
2018-10-06T09:17:53.871Z,8.97
2018-10-06T09:20:22.758Z,8.00
2018-10-06T09:22:51.601Z,8.10
2018-10-06T13:50:42.477Z,3.27
2018-10-06T13:53:11.130Z,3.70
2018-10-06T13:55:40.013Z,3.58
2018-10-06T13:58:09.103Z,3.63
2018-10-06T14:00:37.767Z,3.47
2018-10-06T14:03:06.485Z,3.77
2018-10-06T14:05:35.367Z,3.57
2018-10-06T14:08:03.996Z,3.83
2018-10-06T14:10:32.919Z,4.53
2018-10-06T14:14:25.359Z,3.50
2018-10-06T14:16:55.665Z,3.70
2018-10-06T14:19:24.997Z,3.90
2018-10-06T14:21:54.661Z,3.40
2018-10-06T14:24:24.162Z,3.90
2018-10-06T14:26:52.932Z,3.50
2018-10-06T14:29:21.788Z,3.60
2018-10-06T14:31:50.488Z,3.40
2018-10-06T14:34:19.182Z,3.07
2018-10-06T14:36:47.745Z,3.30
2018-10-06T14:39:16.359Z,3.63
2018-10-06T14:41:45.066Z,3.58
2018-10-06T14:44:13.824Z,3.30
2018-10-06T14:46:42.568Z,3.20
2018-10-06T14:49:11.059Z,3.40
2018-10-06T14:51:40.093Z,3.00
2018-10-06T14:54:08.755Z,3.87
2018-10-06T14:56:37.697Z,3.87
2018-10-06T14:59:06.690Z,3.70
2018-10-06T15:01:35.773Z,3.60
2018-10-06T15:04:04.634Z,3.72
2018-10-06T15:06:33.490Z,3.53
2018-10-06T15:09:02.073Z,4.00
2018-10-06T15:11:30.559Z,4.43
2018-10-06T15:13:59.181Z,4.60
2018-10-06T15:16:28.057Z,5.50
2018-10-06T15:18:57.568Z,4.00
2018-10-06T15:21:26.229Z,4.80
2018-10-06T15:23:56.098Z,4.80
2018-10-06T15:26:24.995Z,4.77
2018-10-06T15:28:53.475Z,4.90
2018-10-06T15:31:22.365Z,5.00
2018-10-06T15:33:51.177Z,4.60
2018-10-06T15:36:19.724Z,4.90
2018-10-06T15:38:48.564Z,5.05
2018-10-06T15:41:17.443Z,5.43
2018-10-06T15:43:46.083Z,6.10
2018-10-06T15:46:14.816Z,6.27
2018-10-06T15:48:43.670Z,22.70
2018-10-06T15:51:12.414Z,9.60
2018-10-06T15:53:40.988Z,4.80
2018-10-06T15:56:09.785Z,5.20
2018-10-06T15:58:38.441Z,5.93
2018-10-06T16:01:07.712Z,5.33
2018-10-06T16:03:36.331Z,4.90
2018-10-06T16:06:05.163Z,6.47
2018-10-06T16:08:34.085Z,9.10
2018-10-06T16:11:02.619Z,6.97
2018-10-06T16:13:31.058Z,6.97
2018-10-06T16:15:59.658Z,6.27
2018-10-06T16:18:28.309Z,5.27
2018-10-06T16:20:57.095Z,5.33
2018-10-06T16:23:25.888Z,6.20
2018-10-06T16:25:54.462Z,6.23
2018-10-06T16:28:23.020Z,6.80
2018-10-06T16:30:51.897Z,7.50
2018-10-06T16:33:20.625Z,7.50
2018-10-06T16:35:49.407Z,8.10
2018-10-06T16:38:18.215Z,9.65
2018-10-06T16:40:47.625Z,7.20
2018-10-06T16:43:16.169Z,5.87
2018-10-06T16:45:45.009Z,6.23
2018-10-06T16:48:13.869Z,6.07
2018-10-06T16:50:43.610Z,6.00
2018-10-06T16:53:12.337Z,6.13
2018-10-06T16:55:41.484Z,6.73
2018-10-06T16:58:34.119Z,6.77
2018-10-06T17:01:05.639Z,6.50
2018-10-06T17:03:40.078Z,6.33
2018-10-06T17:06:10.315Z,5.83
2018-10-06T17:09:03.028Z,6.03
2018-10-06T17:11:31.582Z,5.73
2018-10-06T17:14:00.031Z,6.20
2018-10-06T17:16:28.626Z,6.40
2018-10-06T17:18:57.105Z,5.90
2018-10-06T17:21:25.770Z,6.40
2018-10-06T17:23:54.571Z,8.10
2018-10-06T17:26:23.154Z,7.10
2018-10-06T17:28:51.688Z,6.30
2018-10-06T17:31:20.570Z,6.70
2018-10-06T17:33:49.109Z,6.90
2018-10-06T17:36:18.411Z,7.30
2018-10-06T17:38:48.083Z,7.90
2018-10-06T17:41:16.674Z,8.70
2018-10-06T17:43:45.592Z,9.60
2018-10-06T17:46:14.242Z,9.30
2018-10-06T17:48:43.215Z,9.30
2018-10-06T17:51:11.954Z,10.23
2018-10-06T17:53:40.843Z,9.23
2018-10-06T17:56:09.547Z,8.47
2018-10-06T17:58:38.228Z,7.87
2018-10-06T18:01:07.190Z,7.73
2018-10-06T18:03:35.743Z,7.23
2018-10-06T18:06:04.315Z,7.70
2018-10-06T18:08:33.043Z,8.43
2018-10-06T18:11:01.610Z,8.87
2018-10-06T18:13:30.294Z,8.13
2018-10-06T18:15:58.822Z,7.77
2018-10-06T18:18:27.572Z,6.87
2018-10-06T18:20:56.257Z,6.70
2018-10-06T18:23:25.166Z,7.40
2018-10-06T18:25:53.937Z,6.50
2018-10-06T18:28:22.639Z,6.50
2018-10-06T18:30:51.575Z,5.90
2018-10-06T18:33:20.515Z,6.10
2018-10-06T18:35:49.448Z,6.72
2018-10-06T18:38:18.153Z,7.30
2018-10-06T18:40:46.914Z,7.00
2018-10-06T18:43:16.476Z,5.93
2018-10-06T18:45:46.059Z,5.60
2018-10-06T18:48:14.825Z,6.30
2018-10-06T18:50:43.466Z,7.20
2018-10-06T18:53:12.188Z,7.90
2018-10-06T18:55:41.072Z,8.53
2018-10-06T18:58:09.681Z,7.67
2018-10-06T19:00:38.302Z,8.40
2018-10-06T19:03:07.618Z,7.90
2018-10-06T19:05:36.334Z,7.20
2018-10-06T19:08:05.415Z,7.73
2018-10-06T19:10:34.479Z,6.80
2018-10-06T19:13:03.481Z,7.77
2018-10-06T19:15:32.074Z,9.60
2018-10-06T19:18:00.755Z,6.63
2018-10-06T19:20:29.375Z,8.93
2018-10-06T19:22:58.467Z,8.38
2018-10-06T19:25:27.095Z,8.60
2018-10-06T19:27:55.869Z,9.30
2018-10-06T19:30:24.526Z,8.67
2018-10-06T19:32:53.314Z,10.20
2018-10-06T19:35:22.390Z,9.40
2018-10-06T19:37:51.137Z,9.70
2018-10-06T19:40:19.834Z,9.43
2018-10-06T19:42:48.727Z,9.10
2018-10-06T19:45:17.264Z,8.90
2018-10-06T19:47:45.962Z,9.43
2018-10-06T19:50:14.665Z,9.30
2018-10-06T19:52:43.682Z,8.60
2018-10-06T19:55:12.633Z,8.33
2018-10-06T19:57:41.256Z,7.50
2018-10-06T20:00:09.730Z,9.50
2018-10-06T20:02:38.677Z,10.10
2018-10-06T20:05:07.409Z,9.50
2018-10-06T20:07:36.359Z,9.40
2018-10-06T20:10:05.208Z,8.40
2018-10-06T20:12:34.089Z,11.77
2018-10-06T20:15:02.533Z,8.10
2018-10-06T20:17:31.002Z,8.33
2018-10-06T20:19:59.823Z,9.37
2018-10-06T20:22:28.267Z,9.50
2018-10-06T20:24:56.714Z,8.73
2018-10-06T20:27:25.316Z,10.00
2018-10-06T20:29:53.838Z,9.13
2018-10-06T20:32:22.644Z,9.10
2018-10-06T20:34:51.323Z,8.60
2018-10-06T20:37:20.006Z,9.37
2018-10-06T20:39:48.774Z,9.33
2018-10-06T20:42:17.505Z,9.73
2018-10-06T20:44:46.305Z,9.17
2018-10-06T20:47:15.017Z,9.13
2018-10-06T20:49:43.924Z,9.20
2018-10-06T20:52:12.643Z,8.87
2018-10-06T20:54:41.716Z,10.70
2018-10-06T20:57:10.265Z,10.40
2018-10-06T20:59:38.998Z,9.20
2018-10-06T21:02:07.946Z,9.60
2018-10-06T21:04:36.514Z,9.13
2018-10-06T21:07:05.069Z,9.47
2018-10-06T21:09:33.586Z,9.67
2018-10-06T21:12:02.094Z,9.07
2018-10-06T21:14:30.688Z,11.40
2018-10-06T21:16:59.324Z,12.30
2018-10-06T21:19:27.765Z,11.10
2018-10-06T21:21:56.455Z,10.67
2018-10-06T21:24:25.010Z,11.70
2018-10-06T21:26:53.702Z,10.93
2018-10-06T21:29:22.318Z,12.00
2018-10-06T21:31:50.791Z,11.47
2018-10-06T21:34:19.410Z,12.40
2018-10-06T21:36:47.972Z,11.10
2018-10-06T21:39:16.616Z,11.50
2018-10-06T21:41:45.396Z,11.90
2018-10-06T21:44:13.974Z,10.83
2018-10-06T21:46:42.406Z,10.80
2018-10-06T21:49:11.150Z,10.88
2018-10-06T21:51:40.237Z,11.43
2018-10-06T21:54:08.859Z,11.23
2018-10-06T21:56:37.676Z,10.80
2018-10-06T21:59:06.424Z,10.80
2018-10-06T22:01:35.058Z,11.22
2018-10-06T22:04:04.075Z,10.30
2018-10-06T22:06:32.741Z,10.20
2018-10-06T22:09:01.239Z,11.50
2018-10-06T22:11:29.719Z,10.60
2018-10-06T22:13:58.229Z,11.00
2018-10-06T22:16:26.831Z,10.10
2018-10-06T22:18:55.359Z,10.40
2018-10-06T22:21:24.176Z,10.17
2018-10-06T22:23:52.964Z,9.60
2018-10-06T22:26:21.549Z,9.90
2018-10-06T22:28:50.226Z,9.43
2018-10-06T22:31:19.059Z,10.00
2018-10-06T22:33:47.702Z,10.30
2018-10-06T22:36:16.392Z,10.08
2018-10-06T22:38:45.021Z,9.50
2018-10-06T22:41:13.651Z,9.30
2018-10-06T22:43:42.276Z,10.10
2018-10-06T22:46:11.139Z,10.80
2018-10-06T22:48:39.994Z,10.33
2018-10-06T22:51:08.812Z,10.20
2018-10-06T22:53:37.573Z,10.60
2018-10-06T22:56:06.415Z,10.03
2018-10-06T22:58:35.021Z,9.97
2018-10-06T23:01:03.585Z,11.70
2018-10-06T23:03:32.089Z,12.53
2018-10-06T23:06:00.739Z,13.77
2018-10-06T23:08:29.175Z,13.78
2018-10-06T23:10:57.659Z,11.70
2018-10-06T23:13:26.201Z,11.17
2018-10-06T23:15:55.168Z,12.50
2018-10-06T23:18:24.188Z,10.83
2018-10-06T23:20:52.885Z,10.80
2018-10-06T23:23:21.394Z,12.03
2018-10-06T23:25:50.103Z,9.93
2018-10-06T23:28:18.631Z,10.47
2018-10-06T23:30:47.364Z,9.83
2018-10-06T23:33:15.945Z,9.87
2018-10-06T23:35:44.559Z,10.60
2018-10-06T23:38:13.164Z,9.77
2018-10-06T23:40:42.032Z,9.93
2018-10-06T23:43:10.491Z,10.57
2018-10-06T23:45:39.354Z,10.10
2018-10-06T23:48:08.296Z,10.87
2018-10-06T23:50:36.798Z,10.63
2018-10-06T23:53:05.975Z,11.30
2018-10-06T23:55:34.447Z,11.40
2018-10-06T23:58:02.841Z,10.63
